Shefford, Canada
Current Conditions -  °F | °C
As of 10:15 AM on Monday 24 Nov 2014 (Local Time) from KEFK Reporting Station
Light Rain Light Rain  
Wind Chill: 50°   Ceiling: 1800
Heat Index: 50°   Visibility: 7mi
Dew Point: 49°   Wind: 9mph
Humidity: 96%   Direction: 150°SSE
Pressure: 29.57"   Gusts: NA
Location:  45.42°N, 72.58°W
Report Text: KEFK 241515Z AUTO 15008KT 7SM -RA BKN018 OVC024 10/09 A2957 RMK AO2 T01000094
Loading
Personal Weather Stations






























Interactive Weather Map New forecast layout! Learn more

10-Day Weather Forecast

Advertisements
Track Severe Weather on mobile